Time;durP1;ratioP1;P1;durP2;ratioP2;P2;SDS_P1;SDS_P2;PMS_P1;PMS_P2;Temp;Humidity;BMP_temperature;BMP_pressure;BME280_temperature;BME280_humidity;BME280_pressure;Samples;Min_cycle;Max_cycle;Signal;HPM_P1;HPM_P2
2024/01/23 00:00:37;;;;;;;22.80;5.25;;;6.00;99.90;;;;;;6098724;23;20618;-73
2024/01/23 00:03:03;;;;;;;21.52;5.30;;;5.90;99.90;;;;;;6098585;23;20017;-73
2024/01/23 00:05:28;;;;;;;22.70;5.90;;;5.90;99.90;;;;;;6123148;23;20010;-74
2024/01/23 00:07:54;;;;;;;24.58;5.13;;;5.90;99.90;;;;;;6098661;23;20326;-73
2024/01/23 00:10:22;;;;;;;18.55;5.00;;;5.90;99.90;;;;;;6099186;23;20013;-73
2024/01/23 00:12:48;;;;;;;24.10;5.20;;;5.80;99.90;;;;;;6098765;23;20021;-73
2024/01/23 00:15:14;;;;;;;22.25;5.10;;;5.80;99.90;;;;;;6098391;23;20014;-73
2024/01/23 00:17:40;;;;;;;20.13;4.70;;;5.80;99.90;;;;;;6098499;23;20014;-73
2024/01/23 00:20:06;;;;;;;20.08;4.85;;;5.70;99.90;;;;;;6098747;23;20015;-73
2024/01/23 00:22:31;;;;;;;20.30;4.80;;;5.70;99.90;;;;;;6098848;23;20056;-73
2024/01/23 00:24:57;;;;;;;18.17;4.40;;;5.60;99.90;;;;;;6097971;23;20014;-74
2024/01/23 00:27:23;;;;;;;22.20;5.05;;;5.70;99.90;;;;;;6074914;23;20016;-73
2024/01/23 00:29:48;;;;;;;21.73;5.43;;;5.60;99.90;;;;;;6098704;23;20049;-74
2024/01/23 00:32:14;;;;;;;22.63;4.55;;;5.60;99.90;;;;;;6074411;23;20089;-74
2024/01/23 00:34:40;;;;;;;19.02;4.75;;;5.60;99.90;;;;;;6074519;23;20022;-74
2024/01/23 00:37:06;;;;;;;20.58;4.93;;;5.60;99.90;;;;;;6074782;23;20014;-74
2024/01/23 00:39:31;;;;;;;22.30;4.78;;;5.70;99.90;;;;;;6074983;23;20020;-74
2024/01/23 00:41:57;;;;;;;21.30;5.47;;;5.50;99.90;;;;;;6074469;23;20017;-73
2024/01/23 00:44:22;;;;;;;17.30;4.63;;;5.50;99.90;;;;;;6074195;23;20045;-73
2024/01/23 00:46:48;;;;;;;19.77;4.10;;;5.60;99.90;;;;;;6074551;23;20485;-76
2024/01/23 00:49:14;;;;;;;18.38;4.47;;;5.70;99.90;;;;;;6098973;23;20020;-76
2024/01/23 00:51:39;;;;;;;24.42;4.95;;;5.70;99.90;;;;;;6098827;23;20084;-76
2024/01/23 00:54:05;;;;;;;18.88;4.80;;;5.80;99.90;;;;;;6074245;23;20512;-76
2024/01/23 00:56:30;;;;;;;17.52;5.13;;;5.80;99.90;;;;;;6074280;23;20532;-75
2024/01/23 00:58:56;;;;;;;21.30;5.18;;;5.80;99.90;;;;;;6074508;23;20014;-73
2024/01/23 01:01:22;;;;;;;19.13;4.68;;;5.80;99.90;;;;;;6074706;23;20045;-73
2024/01/23 01:03:47;;;;;;;20.85;4.70;;;5.80;99.90;;;;;;6097816;23;20018;-73
2024/01/23 01:06:13;;;;;;;21.88;4.82;;;5.80;99.90;;;;;;6074300;23;20022;-73
2024/01/23 01:08:38;;;;;;;21.35;4.88;;;5.60;99.90;;;;;;6074720;23;20349;-73
2024/01/23 01:11:06;;;;;;;22.98;5.47;;;5.60;99.90;;;;;;6074621;23;20021;-73
2024/01/23 01:13:32;;;;;;;20.38;4.40;;;5.60;99.90;;;;;;6075837;23;20089;-73
2024/01/23 01:15:57;;;;;;;19.48;5.10;;;5.60;99.90;;;;;;6100120;23;20060;-73
2024/01/23 01:18:23;;;;;;;25.73;6.05;;;5.60;99.90;;;;;;6076487;23;20010;-74
2024/01/23 01:20:48;;;;;;;20.33;4.50;;;5.50;99.90;;;;;;6076632;23;20018;-74
2024/01/23 01:23:15;;;;;;;21.77;5.00;;;5.50;99.90;;;;;;6076529;23;20020;-73
2024/01/23 01:25:43;;;;;;;22.45;5.05;;;5.60;99.90;;;;;;6108061;23;20379;-74
2024/01/23 01:28:09;;;;;;;23.48;6.18;;;5.50;99.90;;;;;;6100261;23;20371;-73
2024/01/23 01:30:34;;;;;;;18.92;5.47;;;5.50;99.90;;;;;;6100452;23;20016;-74
2024/01/23 01:33:00;;;;;;;22.25;5.75;;;5.50;99.90;;;;;;6100091;23;20010;-74
2024/01/23 01:35:25;;;;;;;24.90;5.72;;;5.60;99.90;;;;;;6099901;23;20006;-73
2024/01/23 01:37:51;;;;;;;24.02;5.20;;;5.60;99.90;;;;;;6100091;23;20013;-73
2024/01/23 01:40:17;;;;;;;21.42;5.82;;;5.60;99.90;;;;;;6100262;23;20084;-73
2024/01/23 01:42:43;;;;;;;23.65;4.75;;;5.70;99.90;;;;;;6124634;23;20021;-73
2024/01/23 01:45:12;;;;;;;20.52;5.18;;;5.60;99.90;;;;;;6100169;23;20010;-73
2024/01/23 01:47:41;;;;;;;24.02;5.82;;;5.60;99.90;;;;;;6100073;23;20014;-73
2024/01/23 01:50:07;;;;;;;22.42;5.13;;;5.60;99.90;;;;;;6100247;23;20036;-73
2024/01/23 01:52:33;;;;;;;19.75;5.38;;;5.60;99.90;;;;;;6124240;23;20089;-74
2024/01/23 01:54:59;;;;;;;26.00;6.57;;;5.60;99.90;;;;;;6099739;23;20045;-73
2024/01/23 01:57:28;;;;;;;20.85;5.35;;;5.60;99.90;;;;;;6100100;23;20362;-74
2024/01/23 01:59:53;;;;;;;22.20;5.35;;;5.50;99.90;;;;;;6124248;23;20010;-74
2024/01/23 02:02:20;;;;;;;19.02;4.93;;;5.50;99.90;;;;;;6099768;23;20319;-74
2024/01/23 02:04:46;;;;;;;23.35;5.13;;;5.50;99.90;;;;;;6123836;23;20014;-74
2024/01/23 02:07:11;;;;;;;25.30;6.78;;;5.40;99.90;;;;;;6100000;23;20006;-74
2024/01/23 02:09:37;;;;;;;24.30;5.88;;;5.40;99.90;;;;;;6099936;23;20406;-74
2024/01/23 02:12:07;;;;;;;23.45;6.38;;;5.40;99.90;;;;;;6123792;23;20021;-74
2024/01/23 02:14:32;;;;;;;23.70;5.60;;;5.30;99.90;;;;;;6098356;23;20013;-74
2024/01/23 02:16:58;;;;;;;22.73;5.80;;;5.30;99.90;;;;;;6099245;23;20049;-74
2024/01/23 02:19:26;;;;;;;22.05;5.28;;;5.30;99.90;;;;;;6100208;23;20373;-74
2024/01/23 02:21:53;;;;;;;24.98;5.38;;;5.20;99.90;;;;;;6124781;23;20304;-74
2024/01/23 02:24:19;;;;;;;23.45;5.97;;;5.20;99.90;;;;;;6099870;23;20501;-74
2024/01/23 02:26:45;;;;;;;23.98;5.85;;;5.20;99.90;;;;;;6099718;23;20014;-74
2024/01/23 02:29:11;;;;;;;23.10;5.68;;;5.20;99.90;;;;;;6099808;23;20025;-74
2024/01/23 02:31:37;;;;;;;22.27;5.53;;;5.20;99.90;;;;;;6099823;23;20072;-74
2024/01/23 02:34:03;;;;;;;20.23;5.15;;;5.20;99.90;;;;;;6099447;23;20527;-74
2024/01/23 02:36:29;;;;;;;24.40;5.45;;;5.20;99.90;;;;;;6099808;23;20093;-74
2024/01/23 02:38:55;;;;;;;20.92;5.03;;;5.20;99.90;;;;;;6100065;23;20479;-74
2024/01/23 02:41:21;;;;;;;21.65;5.80;;;5.20;99.90;;;;;;6099482;23;20018;-74
2024/01/23 02:43:46;;;;;;;21.63;5.43;;;5.20;99.90;;;;;;6099603;23;20068;-74
2024/01/23 02:46:12;;;;;;;22.35;4.88;;;5.10;99.90;;;;;;6099885;23;20010;-74
2024/01/23 02:48:37;;;;;;;23.92;5.68;;;5.10;99.90;;;;;;6099657;23;20018;-74
2024/01/23 02:51:03;;;;;;;19.73;5.35;;;5.10;99.90;;;;;;6099458;23;20093;-74
2024/01/23 02:53:29;;;;;;;22.48;5.70;;;5.10;99.90;;;;;;6098743;23;20380;-74
2024/01/23 02:55:54;;;;;;;26.92;6.22;;;5.10;99.90;;;;;;6099216;23;20350;-74
2024/01/23 02:58:21;;;;;;;23.67;5.97;;;5.10;99.90;;;;;;6099416;23;20014;-74
2024/01/23 03:00:47;;;;;;;22.98;5.53;;;5.10;99.90;;;;;;6099582;23;20014;-74
2024/01/23 03:03:12;;;;;;;21.65;5.35;;;5.10;99.90;;;;;;6098860;23;20014;-74
2024/01/23 03:05:38;;;;;;;23.38;5.72;;;5.10;99.90;;;;;;6098986;23;20006;-74
2024/01/23 03:08:04;;;;;;;23.77;5.45;;;5.10;99.90;;;;;;6124093;23;20010;-74
2024/01/23 03:10:30;;;;;;;22.27;5.55;;;5.20;99.90;;;;;;6099464;23;20017;-74
2024/01/23 03:12:56;;;;;;;24.77;6.28;;;5.20;99.90;;;;;;6099227;23;20025;-74
2024/01/23 03:15:22;;;;;;;25.15;5.70;;;5.40;99.90;;;;;;6099421;23;20018;-74
2024/01/23 03:17:47;;;;;;;26.08;5.03;;;5.40;99.90;;;;;;6099264;23;20021;-74
2024/01/23 03:20:13;;;;;;;24.05;5.75;;;5.40;99.90;;;;;;6099117;23;20014;-74
2024/01/23 03:22:39;;;;;;;26.70;5.80;;;5.50;99.90;;;;;;6099172;23;20022;-74
2024/01/23 03:25:07;;;;;;;25.98;6.15;;;5.50;99.90;;;;;;6123953;23;20014;-74
2024/01/23 03:27:33;;;;;;;21.58;5.57;;;5.50;99.90;;;;;;6099249;23;20010;-74
2024/01/23 03:29:59;;;;;;;23.58;6.65;;;5.60;99.90;;;;;;6099311;23;20014;-74
2024/01/23 03:32:26;;;;;;;22.52;5.88;;;5.60;99.90;;;;;;6098757;23;20066;-74
2024/01/23 03:34:51;;;;;;;22.35;6.10;;;5.70;99.90;;;;;;6098565;23;20075;-74
2024/01/23 03:37:20;;;;;;;22.48;5.65;;;5.70;99.90;;;;;;6099343;23;20014;-74
2024/01/23 03:39:45;;;;;;;24.17;5.82;;;5.80;99.90;;;;;;6099184;23;20137;-74
2024/01/23 03:42:11;;;;;;;23.73;5.97;;;5.80;99.90;;;;;;6099943;23;20053;-75
2024/01/23 03:44:39;;;;;;;24.08;6.07;;;5.80;99.90;;;;;;6100261;23;20020;-74
2024/01/23 03:47:05;;;;;;;25.23;6.03;;;5.80;99.90;;;;;;6099272;23;20070;-75
2024/01/23 03:49:30;;;;;;;22.13;5.63;;;5.90;99.90;;;;;;6099638;23;20014;-75
2024/01/23 03:51:58;;;;;;;26.00;6.00;;;5.90;99.90;;;;;;6099877;23;20017;-74
2024/01/23 03:54:24;;;;;;;23.50;5.78;;;6.00;99.90;;;;;;6098681;23;20018;-75
2024/01/23 03:56:49;;;;;;;28.60;6.53;;;5.90;99.90;;;;;;6098274;23;20473;-73
2024/01/23 03:59:15;;;;;;;27.13;7.03;;;5.90;99.90;;;;;;6098501;23;20010;-75
2024/01/23 04:01:41;;;;;;;29.23;6.43;;;5.90;99.90;;;;;;6098962;23;20336;-74
2024/01/23 04:04:06;;;;;;;27.67;6.50;;;5.90;99.90;;;;;;6098939;23;20028;-74
2024/01/23 04:06:32;;;;;;;27.42;6.45;;;5.90;99.90;;;;;;6123026;23;20473;-74
2024/01/23 04:08:59;;;;;;;26.67;5.82;;;6.00;99.90;;;;;;6098869;23;20076;-74
2024/01/23 04:11:24;;;;;;;24.75;5.93;;;5.90;99.90;;;;;;6122760;23;20039;-75
2024/01/23 04:13:50;;;;;;;26.35;6.35;;;6.00;99.90;;;;;;6098028;23;20009;-74
2024/01/23 04:16:16;;;;;;;25.80;5.65;;;6.00;99.90;;;;;;6122718;23;20049;-75
2024/01/23 04:18:41;;;;;;;25.00;6.75;;;6.00;99.90;;;;;;6098646;23;20014;-74
2024/01/23 04:21:07;;;;;;;23.98;5.70;;;6.00;99.90;;;;;;6098980;23;20010;-74
2024/01/23 04:23:32;;;;;;;24.60;6.50;;;6.00;99.90;;;;;;6097655;23;20009;-75
2024/01/23 04:25:59;;;;;;;28.45;6.82;;;6.10;99.90;;;;;;6097714;23;20013;-75
2024/01/23 04:28:24;;;;;;;25.67;5.88;;;6.10;99.90;;;;;;6098894;23;20451;-75
2024/01/23 04:30:52;;;;;;;24.33;6.88;;;6.00;99.90;;;;;;6098681;23;20058;-75
2024/01/23 04:33:18;;;;;;;26.05;5.47;;;6.10;99.90;;;;;;6098426;23;20014;-74
2024/01/23 04:35:44;;;;;;;26.95;6.22;;;6.10;99.90;;;;;;6123126;23;20124;-74
2024/01/23 04:38:10;;;;;;;30.02;6.45;;;6.10;99.90;;;;;;6098183;23;20045;-74
2024/01/23 04:40:35;;;;;;;23.00;4.97;;;6.10;99.90;;;;;;6122970;23;20049;-74
2024/01/23 04:43:01;;;;;;;22.38;5.30;;;6.10;99.90;;;;;;6098417;23;20462;-74
2024/01/23 04:45:26;;;;;;;25.55;6.38;;;6.10;99.90;;;;;;6122636;23;20013;-74
2024/01/23 04:47:52;;;;;;;23.38;5.65;;;6.10;99.90;;;;;;6097955;23;20009;-74
2024/01/23 04:50:17;;;;;;;26.35;6.00;;;6.10;99.90;;;;;;6098608;23;20450;-74
2024/01/23 04:52:43;;;;;;;26.40;6.63;;;6.10;99.90;;;;;;6123300;23;20050;-74
2024/01/23 04:55:09;;;;;;;23.75;6.30;;;6.10;99.90;;;;;;6098122;23;20013;-74
2024/01/23 04:57:34;;;;;;;26.10;6.47;;;6.10;99.90;;;;;;6098617;23;20045;-74
2024/01/23 05:00:04;;;;;;;26.42;6.22;;;6.10;99.90;;;;;;6122286;23;20010;-74
2024/01/23 05:02:30;;;;;;;26.75;6.18;;;6.00;99.90;;;;;;6098525;23;20097;-74
2024/01/23 05:04:56;;;;;;;23.77;6.32;;;6.00;99.90;;;;;;6097993;23;20045;-74
2024/01/23 05:07:24;;;;;;;25.48;6.55;;;6.00;99.90;;;;;;6122763;23;20046;-74
2024/01/23 05:09:53;;;;;;;26.83;6.78;;;6.00;99.90;;;;;;6098498;23;20455;-75
2024/01/23 05:12:18;;;;;;;31.65;7.57;;;6.10;99.90;;;;;;6098354;23;20029;-74
2024/01/23 05:14:44;;;;;;;24.33;6.32;;;6.00;99.90;;;;;;6097950;23;20014;-74
2024/01/23 05:17:09;;;;;;;25.92;6.82;;;6.00;99.90;;;;;;6098191;23;20347;-74
2024/01/23 05:19:35;;;;;;;25.63;7.40;;;6.00;99.90;;;;;;6098655;23;20351;-74
2024/01/23 05:22:01;;;;;;;25.38;6.13;;;6.00;99.90;;;;;;6098319;23;20072;-74
2024/01/23 05:24:27;;;;;;;30.73;6.63;;;6.00;99.90;;;;;;6097997;23;20010;-74
2024/01/23 05:26:53;;;;;;;26.15;7.28;;;6.10;99.90;;;;;;6122686;23;20473;-75
2024/01/23 05:29:18;;;;;;;25.75;6.15;;;6.10;99.90;;;;;;6098374;23;20018;-73
2024/01/23 05:31:45;;;;;;;26.80;6.93;;;6.10;99.90;;;;;;6122769;23;20018;-75
2024/01/23 05:34:10;;;;;;;28.05;6.95;;;6.10;99.90;;;;;;6097717;23;20010;-74
2024/01/23 05:36:36;;;;;;;29.88;7.70;;;6.10;99.90;;;;;;6097635;23;20540;-75
2024/01/23 05:39:01;;;;;;;24.40;7.10;;;6.10;99.90;;;;;;6098122;23;20038;-74
2024/01/23 05:41:27;;;;;;;29.77;7.75;;;6.00;99.90;;;;;;6098054;23;20383;-73
2024/01/23 05:43:52;;;;;;;31.13;7.47;;;6.00;99.90;;;;;;6122257;23;20014;-74
2024/01/23 05:46:18;;;;;;;28.40;6.65;;;6.00;99.90;;;;;;6098422;23;20259;-75
2024/01/23 05:48:44;;;;;;;29.63;7.40;;;6.00;99.90;;;;;;6098108;23;20029;-75
2024/01/23 05:51:09;;;;;;;26.70;6.70;;;6.00;99.90;;;;;;6097812;23;20096;-75
2024/01/23 05:53:36;;;;;;;28.02;6.85;;;6.00;99.90;;;;;;6098460;23;20025;-75
2024/01/23 05:56:09;;;;;;;29.88;6.75;;;6.00;99.90;;;;;;6097607;23;20021;-75
2024/01/23 05:58:45;;;;;;;29.55;7.55;;;6.00;99.90;;;;;;6098467;23;20014;-76
2024/01/23 06:01:16;;;;;;;26.67;7.35;;;6.00;99.90;;;;;;6098744;23;20042;-77
2024/01/23 06:04:02;;;;;;;32.83;7.80;;;6.10;99.90;;;;;;6124189;23;20073;-77
2024/01/23 06:06:49;;;;;;;29.67;7.00;;;6.10;99.90;;;;;;6100074;23;20010;-77
2024/01/23 06:09:17;;;;;;;33.10;7.28;;;6.10;99.90;;;;;;6100093;23;20098;-77
2024/01/23 06:11:46;;;;;;;29.38;6.97;;;6.10;99.90;;;;;;6099618;23;20053;-80
2024/01/23 06:14:15;;;;;;;26.55;6.88;;;6.10;99.90;;;;;;6123864;23;20084;-75
2024/01/23 06:16:51;;;;;;;31.02;7.45;;;6.10;99.90;;;;;;6122999;23;20458;-75
2024/01/23 06:19:20;;;;;;;30.83;7.55;;;6.10;99.90;;;;;;6123084;23;20009;-75
2024/01/23 06:22:01;;;;;;;26.48;7.18;;;6.10;99.90;;;;;;6123612;23;20014;-74
2024/01/23 06:24:37;;;;;;;28.08;6.90;;;6.10;99.90;;;;;;6098202;23;20092;-75
2024/01/23 06:27:16;;;;;;;31.10;7.82;;;6.10;99.90;;;;;;6124096;23;20014;-74
2024/01/23 06:29:45;;;;;;;37.92;7.97;;;6.20;99.90;;;;;;6124197;23;20018;-75
2024/01/23 06:32:16;;;;;;;29.85;7.20;;;6.20;99.90;;;;;;6099650;23;20541;-74
2024/01/23 06:34:59;;;;;;;;;;;6.20;99.90;;;;;;6102339;23;20014;-75
2024/01/23 06:37:30;;;;;;;28.67;7.30;;;6.10;99.90;;;;;;6099698;23;20211;-75
2024/01/23 06:40:08;;;;;;;32.90;7.97;;;6.10;99.90;;;;;;6100504;23;20688;-75
2024/01/23 06:42:52;;;;;;;32.10;7.18;;;6.10;99.90;;;;;;6099605;23;20037;-75
2024/01/23 06:45:26;;;;;;;29.27;7.55;;;6.20;99.90;;;;;;6100411;23;20049;-75
2024/01/23 06:48:02;;;;;;;29.33;7.50;;;6.20;99.90;;;;;;6100038;23;20395;-75
2024/01/23 06:50:39;;;;;;;28.60;7.28;;;6.20;99.90;;;;;;6099604;23;20018;-74
2024/01/23 06:53:11;;;;;;;31.52;7.28;;;6.20;99.90;;;;;;6100476;23;20490;-75
2024/01/23 06:56:02;;;;;;;33.35;7.63;;;6.10;99.90;;;;;;6123804;23;20078;-75
2024/01/23 06:58:45;;;;;;;29.63;7.53;;;6.00;99.90;;;;;;6100213;23;20014;-75
2024/01/23 07:01:31;;;;;;;35.25;8.13;;;5.90;99.90;;;;;;6100412;23;20395;-75
2024/01/23 07:04:33;;;;;;;34.22;8.88;;;5.90;99.90;;;;;;6100759;23;20346;-75
2024/01/23 07:07:02;;;;;;;30.38;7.18;;;5.80;99.90;;;;;;6089009;23;20020;-75
2024/01/23 07:09:30;;;;;;;29.83;7.38;;;5.90;99.90;;;;;;6123392;23;20092;-74
2024/01/23 07:12:04;;;;;;;30.98;7.55;;;5.80;99.90;;;;;;6099460;23;20014;-74
2024/01/23 07:14:46;;;;;;;35.13;7.97;;;5.70;99.90;;;;;;6123778;23;20018;-74
2024/01/23 07:17:31;;;;;;;33.75;7.80;;;5.70;99.90;;;;;;6100027;23;20018;-75
2024/01/23 07:20:16;;;;;;;37.20;8.32;;;5.60;99.90;;;;;;6099802;23;20013;-74
2024/01/23 07:23:21;;;;;;;34.67;7.80;;;5.50;99.90;;;;;;6123749;23;20017;-74
2024/01/23 07:25:58;;;;;;;34.03;8.20;;;5.40;99.90;;;;;;6095893;23;20014;-75
2024/01/23 07:28:31;;;;;;;36.65;8.70;;;5.40;99.90;;;;;;6120813;23;20041;-75
2024/01/23 07:31:02;;;;;;;32.22;7.82;;;5.30;99.90;;;;;;6099601;23;20123;-74
2024/01/23 07:33:46;;;;;;;30.42;7.88;;;5.30;99.90;;;;;;6100535;23;20450;-74
2024/01/23 07:36:25;;;;;;;30.70;7.53;;;5.20;99.90;;;;;;6122755;23;20140;-74
2024/01/23 07:38:59;;;;;;;33.25;8.18;;;5.20;99.90;;;;;;6097245;23;20096;-75
2024/01/23 07:41:37;;;;;;;36.15;8.95;;;5.20;99.90;;;;;;6098962;23;20010;-74
2024/01/23 07:44:05;;;;;;;34.33;7.65;;;5.10;99.90;;;;;;6098284;23;20009;-74
2024/01/23 07:46:51;;;;;;;36.72;7.85;;;5.10;99.90;;;;;;6122469;23;20010;-75
2024/01/23 07:49:38;;;;;;;35.10;7.95;;;5.10;99.90;;;;;;6081349;23;20346;-75
2024/01/23 07:52:28;;;;;;;34.22;7.65;;;5.00;99.90;;;;;;6098794;23;20018;-75
2024/01/23 07:58:14;;;;;;;;;;;;;;;;;;;;;
2024/01/23 08:00:46;;;;;;;36.95;7.95;;;4.90;99.90;;;;;;6121871;23;20467;-74
2024/01/23 08:03:17;;;;;;;40.55;8.05;;;4.90;99.90;;;;;;6098459;23;20017;-75
2024/01/23 08:08:44;;;;;;;34.83;8.52;;;5.00;99.90;;;;;;6122504;23;20049;-74
2024/01/23 08:11:12;;;;;;;40.03;8.85;;;4.90;99.90;;;;;;6123641;23;20017;-75
2024/01/23 08:13:41;;;;;;;35.50;7.90;;;4.90;99.90;;;;;;6098973;23;20092;-74
2024/01/23 08:16:16;;;;;;;32.97;8.15;;;5.00;99.90;;;;;;6098106;23;20355;-75
2024/01/23 08:18:48;;;;;;;40.00;9.40;;;4.90;99.90;;;;;;6098350;23;20014;-76
2024/01/23 08:21:21;;;;;;;41.93;9.20;;;4.90;99.90;;;;;;6099131;23;20010;-76
2024/01/23 08:23:54;;;;;;;35.80;8.15;;;4.90;99.90;;;;;;6098432;23;20385;-75
2024/01/23 08:26:23;;;;;;;34.55;8.32;;;5.00;99.90;;;;;;6122927;23;20016;-76
2024/01/23 08:28:56;;;;;;;35.33;7.80;;;4.90;99.90;;;;;;6098525;23;20018;-75
2024/01/23 08:31:25;;;;;;;35.08;8.55;;;4.90;99.90;;;;;;6098823;23;20014;-75
2024/01/23 08:33:53;;;;;;;37.22;8.35;;;5.00;99.90;;;;;;6097808;23;20358;-74
2024/01/23 08:36:23;;;;;;;38.78;9.18;;;5.00;99.90;;;;;;6122649;23;20049;-73
2024/01/23 08:38:50;;;;;;;36.88;8.40;;;5.00;99.90;;;;;;6097663;23;20014;-74
2024/01/23 08:41:16;;;;;;;33.78;7.60;;;5.00;99.90;;;;;;6098429;23;20455;-75
2024/01/23 08:43:42;;;;;;;39.67;8.15;;;5.10;99.90;;;;;;6098084;23;20012;-75
2024/01/23 08:46:07;;;;;;;33.10;8.98;;;5.10;99.90;;;;;;6098628;23;20435;-76
2024/01/23 08:48:33;;;;;;;33.17;8.30;;;5.10;99.90;;;;;;6098581;23;20088;-76
2024/01/23 08:50:59;;;;;;;35.17;8.63;;;5.10;99.90;;;;;;6098543;23;20064;-75
2024/01/23 08:53:24;;;;;;;35.50;7.90;;;5.20;99.90;;;;;;6098029;23;20010;-73
2024/01/23 08:55:50;;;;;;;37.30;8.57;;;5.30;99.90;;;;;;6098293;23;20466;-75
2024/01/23 08:58:17;;;;;;;36.15;8.45;;;5.30;99.90;;;;;;6098644;23;20153;-75
2024/01/23 09:00:46;;;;;;;29.58;7.43;;;5.30;99.90;;;;;;6097996;23;20153;-76
2024/01/23 09:03:11;;;;;;;39.60;9.63;;;5.30;99.90;;;;;;6097512;23;20022;-75
2024/01/23 09:05:37;;;;;;;36.70;8.07;;;5.30;99.90;;;;;;6098493;23;20037;-75
2024/01/23 09:08:05;;;;;;;38.55;8.88;;;5.40;99.90;;;;;;6098942;23;20020;-74
2024/01/23 09:10:31;;;;;;;36.15;8.02;;;5.40;99.90;;;;;;6098322;23;20076;-74
2024/01/23 09:12:59;;;;;;;34.35;8.02;;;5.50;99.90;;;;;;6122864;23;20039;-75
2024/01/23 09:15:27;;;;;;;36.08;8.10;;;5.50;99.90;;;;;;6098637;23;20021;-76
2024/01/23 09:18:08;;;;;;;35.60;8.40;;;5.50;99.90;;;;;;6098332;23;20018;-75
2024/01/23 09:21:00;;;;;;;39.95;8.77;;;5.60;99.90;;;;;;6098299;23;20451;-76
2024/01/23 09:23:49;;;;;;;33.45;8.60;;;5.60;99.90;;;;;;6097019;23;20084;-76
2024/01/23 09:30:29;;;;;;;37.55;8.73;;;5.70;99.90;;;;;;6122162;23;20084;-76
2024/01/23 09:33:25;;;;;;;29.50;7.78;;;5.80;99.90;;;;;;6113414;23;20033;-76
2024/01/23 09:35:56;;;;;;;38.75;9.18;;;6.00;99.90;;;;;;6094194;23;20018;-76
2024/01/23 09:39:32;;;;;;;;;;;;;;;;;;;;;
2024/01/23 09:42:42;;;;;;;29.73;7.45;;;6.10;99.90;;;;;;6108851;23;20014;-76
2024/01/23 09:45:37;;;;;;;35.33;8.68;;;6.20;99.90;;;;;;6124296;23;20014;-76
2024/01/23 09:48:47;;;;;;;33.00;8.07;;;6.40;99.90;;;;;;6099928;23;20014;-76
2024/01/23 09:51:35;;;;;;;32.90;9.13;;;6.60;99.90;;;;;;6061284;23;20316;-76
2024/01/23 09:54:24;;;;;;;34.90;8.77;;;6.50;99.90;;;;;;6100630;23;20021;-76
2024/01/23 10:00:53;;;;;;;36.80;8.48;;;6.70;99.90;;;;;;6123304;23;20112;-76
2024/01/23 10:03:50;;;;;;;;;;;;;;;;;;;;;
2024/01/23 10:06:46;;;;;;;30.58;8.48;;;6.80;99.90;;;;;;6126050;23;20024;-75
2024/01/23 10:10:27;;;;;;;;;;;;;;;;;;;;;
2024/01/23 10:13:16;;;;;;;32.85;8.50;;;6.90;99.90;;;;;;6095873;23;20029;-75
2024/01/23 10:15:41;;;;;;;35.92;8.02;;;6.90;99.90;;;;;;6099801;23;20013;-74
2024/01/23 10:18:10;;;;;;;35.38;8.27;;;7.00;99.90;;;;;;6099965;23;20089;-76
2024/01/23 10:20:44;;;;;;;31.27;7.15;;;7.20;99.90;;;;;;6098941;23;20439;-76
2024/01/23 10:23:13;;;;;;;31.25;7.68;;;7.10;99.90;;;;;;6099520;23;20021;-76
2024/01/23 10:25:44;;;;;;;33.63;7.88;;;7.10;99.90;;;;;;6097798;23;20332;-75
2024/01/23 10:28:20;;;;;;;31.77;7.97;;;7.00;99.90;;;;;;6076073;23;20092;-76
2024/01/23 10:31:16;;;;;;;31.15;7.40;;;7.10;99.90;;;;;;6101994;23;20446;-76
2024/01/23 10:33:50;;;;;;;33.28;7.90;;;7.10;99.90;;;;;;6074697;23;20014;-76
2024/01/23 10:36:45;;;;;;;33.28;7.93;;;7.10;99.90;;;;;;6073328;23;20016;-76
2024/01/23 10:39:44;;;;;;;31.02;7.50;;;7.10;99.90;;;;;;6075655;23;20021;-76
2024/01/23 10:42:21;;;;;;;30.00;7.13;;;7.10;99.90;;;;;;6074967;23;20010;-74
2024/01/23 10:44:50;;;;;;;33.38;7.88;;;7.20;99.90;;;;;;6074651;23;20010;-76
2024/01/23 10:47:41;;;;;;;29.23;6.90;;;7.20;99.90;;;;;;6095417;23;20010;-75
2024/01/23 10:50:34;;;;;;;35.85;7.75;;;7.10;99.90;;;;;;6099501;23;20022;-76
2024/01/23 10:53:35;;;;;;;28.15;7.90;;;7.10;99.90;;;;;;6073458;23;20049;-76
2024/01/23 10:56:20;;;;;;;26.17;7.22;;;7.20;99.90;;;;;;6075581;23;20418;-76
2024/01/23 10:59:05;;;;;;;29.80;8.13;;;7.20;99.90;;;;;;6076240;23;20024;-76
2024/01/23 11:02:00;;;;;;;31.15;7.90;;;7.40;99.90;;;;;;6076090;23;20023;-76
2024/01/23 11:04:47;;;;;;;;;;;;;;;;;;;;;
2024/01/23 11:07:29;;;;;;;30.48;8.40;;;7.60;99.90;;;;;;6099526;23;20246;-75
2024/01/23 11:10:46;;;;;;;32.55;7.47;;;7.70;99.90;;;;;;6075251;23;20061;-78
2024/01/23 11:13:38;;;;;;;28.60;6.88;;;7.80;99.90;;;;;;6097058;23;20165;-76
2024/01/23 11:16:44;;;;;;;29.63;6.80;;;7.80;99.90;;;;;;6074330;23;20072;-76
2024/01/23 11:19:16;;;;;;;27.58;7.43;;;7.90;99.90;;;;;;6072363;23;20112;-76
2024/01/23 11:22:07;;;;;;;30.35;8.25;;;7.90;99.90;;;;;;6075661;23;20010;-76
2024/01/23 11:24:52;;;;;;;31.17;6.97;;;8.00;99.90;;;;;;6075168;23;20017;-76
2024/01/23 11:27:23;;;;;;;32.60;7.55;;;8.20;99.90;;;;;;6087029;23;20022;-75
2024/01/23 11:30:01;;;;;;;25.98;6.72;;;8.20;99.90;;;;;;6123382;23;20018;-77
2024/01/23 11:32:28;;;;;;;34.35;7.47;;;8.20;99.90;;;;;;6097576;23;20017;-75
2024/01/23 11:35:14;;;;;;;33.30;7.43;;;8.20;99.90;;;;;;6098564;23;20506;-76
2024/01/23 11:37:56;;;;;;;29.70;7.18;;;8.30;99.90;;;;;;6123736;23;20018;-76
2024/01/23 11:40:33;;;;;;;29.60;7.10;;;8.30;99.90;;;;;;6123419;23;20096;-77
2024/01/23 11:43:05;;;;;;;31.15;7.50;;;8.20;99.90;;;;;;6098620;23;20010;-77
2024/01/23 11:45:33;;;;;;;25.73;6.53;;;8.40;99.90;;;;;;6098594;23;20014;-74
2024/01/23 11:48:03;;;;;;;24.70;6.40;;;8.80;99.90;;;;;;6098884;23;20022;-75
2024/01/23 11:50:33;;;;;;;33.65;8.30;;;9.00;99.90;;;;;;6098752;23;20036;-74
2024/01/23 11:53:00;;;;;;;28.50;7.43;;;9.20;99.90;;;;;;6098669;23;20017;-74
2024/01/23 11:55:26;;;;;;;33.67;7.40;;;9.30;99.90;;;;;;6098548;23;20021;-75
2024/01/23 11:57:59;;;;;;;30.05;7.40;;;9.20;99.90;;;;;;6099055;23;20092;-74
2024/01/23 12:00:26;;;;;;;28.80;6.57;;;9.20;99.90;;;;;;6098636;23;20009;-74
2024/01/23 12:02:55;;;;;;;35.47;7.28;;;9.50;99.90;;;;;;6098088;23;20006;-74
2024/01/23 12:05:28;;;;;;;30.30;7.15;;;9.60;99.90;;;;;;6098721;23;20042;-76
2024/01/23 12:07:57;;;;;;;29.45;7.25;;;9.60;99.90;;;;;;6123578;23;20017;-76
2024/01/23 12:10:31;;;;;;;29.85;7.20;;;9.50;99.90;;;;;;6124348;23;20036;-76
2024/01/23 12:13:08;;;;;;;24.85;7.13;;;9.40;99.90;;;;;;6098634;23;20014;-76
2024/01/23 12:15:33;;;;;;;28.30;7.80;;;9.40;99.90;;;;;;6100513;23;20068;-77
2024/01/23 12:18:04;;;;;;;30.90;8.05;;;9.70;99.90;;;;;;6123486;23;20058;-77
2024/01/23 12:20:43;;;;;;;28.38;6.90;;;10.00;99.90;;;;;;6087696;23;20022;-76
2024/01/23 12:23:09;;;;;;;24.75;6.50;;;10.00;99.90;;;;;;6099006;23;20521;-76
2024/01/23 12:25:37;;;;;;;26.50;7.80;;;10.20;99.90;;;;;;6123394;23;20390;-75
2024/01/23 12:28:03;;;;;;;26.38;6.38;;;10.30;99.90;;;;;;6099826;23;20017;-75
2024/01/23 12:30:32;;;;;;;27.33;6.82;;;10.50;99.90;;;;;;6099417;23;20222;-74
2024/01/23 12:32:59;;;;;;;29.77;7.65;;;10.50;99.90;;;;;;6099061;23;20014;-75
2024/01/23 12:35:25;;;;;;;30.88;7.45;;;10.60;99.90;;;;;;6098895;23;20010;-75
2024/01/23 12:37:54;;;;;;;28.65;7.10;;;10.80;99.90;;;;;;6098816;23;20012;-75
2024/01/23 12:40:21;;;;;;;27.70;6.38;;;10.60;99.90;;;;;;6098085;23;20025;-75
2024/01/23 12:42:47;;;;;;;27.60;6.32;;;10.20;99.90;;;;;;6098578;23;20036;-75
2024/01/23 12:45:19;;;;;;;28.60;7.70;;;9.70;99.90;;;;;;6098233;23;20506;-75
2024/01/23 12:47:46;;;;;;;29.98;6.20;;;9.20;99.90;;;;;;6123393;23;20045;-75
2024/01/23 12:50:24;;;;;;;28.02;6.70;;;9.00;99.90;;;;;;6098293;23;20017;-74
2024/01/23 12:52:52;;;;;;;27.92;7.40;;;8.90;99.90;;;;;;6098478;23;20056;-75
2024/01/23 12:55:18;;;;;;;25.83;7.35;;;8.70;99.90;;;;;;6122826;23;20081;-75
2024/01/23 12:57:45;;;;;;;24.65;6.32;;;8.60;99.90;;;;;;6098536;23;20050;-75
2024/01/23 13:00:12;;;;;;;25.10;7.65;;;8.50;99.90;;;;;;6097929;23;20018;-75
2024/01/23 13:02:38;;;;;;;28.42;6.68;;;8.40;99.90;;;;;;6098579;23;20010;-74
2024/01/23 13:05:06;;;;;;;26.95;7.20;;;8.40;99.90;;;;;;6098105;23;20017;-74
2024/01/23 13:07:32;;;;;;;26.45;6.75;;;8.40;99.90;;;;;;6098371;23;20029;-74
2024/01/23 13:10:04;;;;;;;30.27;7.50;;;8.40;99.90;;;;;;6098510;23;20164;-74
2024/01/23 13:12:37;;;;;;;27.88;6.32;;;8.50;99.90;;;;;;6122521;23;20097;-75
2024/01/23 13:15:04;;;;;;;26.35;6.30;;;8.50;99.90;;;;;;6098258;23;20044;-74
2024/01/23 13:17:31;;;;;;;25.30;6.65;;;8.60;99.90;;;;;;6098371;23;20014;-75
2024/01/23 13:19:56;;;;;;;26.90;6.45;;;8.60;99.90;;;;;;6122957;23;20067;-75
2024/01/23 13:22:22;;;;;;;25.85;6.35;;;8.60;99.90;;;;;;6097776;23;20014;-75
2024/01/23 13:24:50;;;;;;;25.40;6.63;;;8.70;99.90;;;;;;6097451;23;20010;-75
2024/01/23 13:27:16;;;;;;;28.85;6.65;;;8.60;99.90;;;;;;6098573;23;20040;-75
2024/01/23 13:29:42;;;;;;;25.70;6.15;;;8.60;99.90;;;;;;6098848;23;20049;-75